createdAt,value
2022-11-13T00:00:41.649Z,3.55
2022-11-13T00:01:43.726Z,3.95
2022-11-13T00:02:45.657Z,3.90
2022-11-13T00:03:47.877Z,4.28
2022-11-13T00:04:50.975Z,4.18
2022-11-13T00:06:04.343Z,4.55
2022-11-13T00:07:06.558Z,4.35
2022-11-13T00:08:08.569Z,4.75
2022-11-13T00:09:12.064Z,4.18
2022-11-13T00:10:14.159Z,4.30
2022-11-13T00:11:20.055Z,4.75
2022-11-13T00:12:22.045Z,3.90
2022-11-13T00:13:29.061Z,4.45
2022-11-13T00:14:32.286Z,4.63
2022-11-13T00:15:34.188Z,4.85
2022-11-13T00:16:36.068Z,4.20
2022-11-13T00:17:38.165Z,4.50
2022-11-13T00:18:40.623Z,4.47
2022-11-13T00:19:42.567Z,4.32
2022-11-13T00:20:44.507Z,5.03
2022-11-13T00:21:46.457Z,4.72
2022-11-13T00:22:48.374Z,4.38
2022-11-13T00:23:51.720Z,4.63
2022-11-13T00:24:54.491Z,4.45
2022-11-13T00:25:56.367Z,4.45
2022-11-13T00:26:59.296Z,5.00
2022-11-13T00:28:01.208Z,4.85
2022-11-13T00:29:03.889Z,3.60
2022-11-13T00:30:06.506Z,4.13
2022-11-13T00:31:09.948Z,4.10
2022-11-13T00:32:12.060Z,3.70
2022-11-13T00:33:18.930Z,3.90
2022-11-13T00:35:51.925Z,3.88
2022-11-13T00:36:53.795Z,2.95
2022-11-13T00:37:55.738Z,3.05
2022-11-13T00:38:59.047Z,3.92
2022-11-13T00:40:00.956Z,3.65
2022-11-13T00:41:03.475Z,3.55
2022-11-13T00:42:05.688Z,4.00
2022-11-13T00:43:07.631Z,4.10
2022-11-13T00:44:11.821Z,3.67
2022-11-13T00:45:14.804Z,4.07
2022-11-13T00:46:16.758Z,4.45
2022-11-13T00:47:19.826Z,3.47
2022-11-13T00:48:22.231Z,4.10
2022-11-13T00:49:24.183Z,3.92
2022-11-13T00:50:26.635Z,3.63
2022-11-13T00:51:28.650Z,3.75
2022-11-13T00:52:31.240Z,3.80
2022-11-13T00:53:33.310Z,4.78
2022-11-13T00:54:35.313Z,4.18
2022-11-13T00:55:37.364Z,4.68
2022-11-13T00:56:39.263Z,4.75
2022-11-13T00:57:41.143Z,4.35
2022-11-13T00:58:43.266Z,4.68
2022-11-13T00:59:45.233Z,5.47
2022-11-13T01:00:48.415Z,4.57
2022-11-13T01:01:50.524Z,4.25
2022-11-13T01:02:52.704Z,4.32
2022-11-13T01:03:54.683Z,3.95
2022-11-13T01:04:56.664Z,3.67
2022-11-13T01:05:58.631Z,4.00
2022-11-13T01:07:00.693Z,3.97
2022-11-13T01:08:02.956Z,3.38
2022-11-13T01:09:04.884Z,3.22
2022-11-13T01:10:07.688Z,4.13
2022-11-13T01:11:17.948Z,3.35
2022-11-13T01:12:19.976Z,3.63
2022-11-13T01:13:21.939Z,4.07
2022-11-13T01:14:23.887Z,3.95
2022-11-13T01:15:26.084Z,3.42
2022-11-13T01:16:29.467Z,3.40
2022-11-13T01:17:31.417Z,3.60
2022-11-13T01:18:33.864Z,3.72
2022-11-13T01:19:36.146Z,3.40
2022-11-13T01:20:38.562Z,3.50
2022-11-13T01:21:40.539Z,3.15
2022-11-13T01:22:42.436Z,3.70
2022-11-13T01:23:44.647Z,3.50
2022-11-13T01:24:46.536Z,3.70
2022-11-13T01:25:48.722Z,3.85
2022-11-13T01:26:50.729Z,4.03
2022-11-13T01:27:53.046Z,3.15
2022-11-13T01:28:57.701Z,3.80
2022-11-13T01:29:59.639Z,3.80
2022-11-13T01:31:04.304Z,3.97
2022-11-13T01:32:06.496Z,3.80
2022-11-13T01:33:08.431Z,3.97
2022-11-13T01:34:10.373Z,3.55
2022-11-13T01:35:12.357Z,3.90
2022-11-13T01:36:23.730Z,3.45
2022-11-13T01:37:25.868Z,3.25
2022-11-13T01:38:28.082Z,3.50
2022-11-13T01:39:30.570Z,4.55
2022-11-13T01:40:37.568Z,4.15
2022-11-13T01:41:41.845Z,4.07
2022-11-13T01:42:47.192Z,3.95
2022-11-13T01:43:49.204Z,3.55
2022-11-13T01:44:52.669Z,3.97
2022-11-13T01:46:00.897Z,4.28
2022-11-13T01:47:03.700Z,4.28
2022-11-13T01:48:08.759Z,4.13
2022-11-13T01:49:10.708Z,4.32
2022-11-13T01:50:15.329Z,3.70
2022-11-13T01:51:30.004Z,4.28
2022-11-13T01:52:36.655Z,4.20
2022-11-13T01:53:39.910Z,3.70
2022-11-13T01:54:46.929Z,3.90
2022-11-13T01:55:48.994Z,3.17
2022-11-13T01:56:51.508Z,5.18
2022-11-13T01:57:54.172Z,4.35
2022-11-13T01:59:18.745Z,3.70
2022-11-13T02:00:20.739Z,4.68
2022-11-13T02:01:22.711Z,3.97
2022-11-13T02:02:25.937Z,4.38
2022-11-13T02:03:27.909Z,4.10
2022-11-13T02:04:31.363Z,4.60
2022-11-13T02:05:33.531Z,4.47
2022-11-13T02:06:45.817Z,3.50
2022-11-13T02:07:47.965Z,3.95
2022-11-13T02:08:51.368Z,4.28
2022-11-13T02:09:56.354Z,3.42
2022-11-13T02:10:58.268Z,3.10
2022-11-13T02:12:00.902Z,3.22
2022-11-13T02:13:03.446Z,3.05
2022-11-13T02:14:06.534Z,3.15
2022-11-13T02:15:10.572Z,3.60
2022-11-13T02:16:13.893Z,3.72
2022-11-13T02:17:25.582Z,3.15
2022-11-13T02:18:31.367Z,3.97
2022-11-13T02:19:43.890Z,3.72
2022-11-13T02:21:05.929Z,3.95
2022-11-13T02:22:30.520Z,4.32
2022-11-13T02:23:49.644Z,3.42
2022-11-13T02:24:54.911Z,3.78
2022-11-13T02:25:57.570Z,3.47
2022-11-13T02:27:04.765Z,3.25
2022-11-13T02:28:06.929Z,3.70
2022-11-13T02:29:09.259Z,4.10
2022-11-13T02:30:32.337Z,3.97
2022-11-13T02:32:53.606Z,3.25
2022-11-13T02:33:57.084Z,4.25
2022-11-13T02:34:59.036Z,3.08
2022-11-13T02:36:01.319Z,3.45
2022-11-13T02:37:04.182Z,3.22
2022-11-13T02:38:06.707Z,3.33
2022-11-13T02:39:12.798Z,2.70
2022-11-13T02:40:16.774Z,2.63
2022-11-13T02:41:18.731Z,2.50
2022-11-13T02:42:20.672Z,2.75
2022-11-13T02:43:22.610Z,2.40
2022-11-13T02:44:24.598Z,2.47
2022-11-13T02:45:26.473Z,2.17
2022-11-13T02:46:28.425Z,2.70
2022-11-13T02:47:30.509Z,2.55
2022-11-13T02:48:32.537Z,1.95
2022-11-13T02:49:34.545Z,2.28
2022-11-13T02:50:37.962Z,2.67
2022-11-13T02:51:39.801Z,2.70
2022-11-13T02:52:42.128Z,2.42
2022-11-13T02:53:44.284Z,2.40
2022-11-13T02:54:46.192Z,2.10
2022-11-13T02:55:48.280Z,2.13
2022-11-13T02:56:50.457Z,2.30
2022-11-13T02:57:53.450Z,2.30
2022-11-13T02:58:55.397Z,2.10
2022-11-13T02:59:57.766Z,2.75
2022-11-13T03:01:02.622Z,2.15
2022-11-13T03:02:04.868Z,2.53
2022-11-13T03:03:06.857Z,2.05
2022-11-13T03:04:09.039Z,2.50
2022-11-13T03:05:13.018Z,2.58
2022-11-13T03:06:16.498Z,2.40
2022-11-13T03:07:18.811Z,2.33
2022-11-13T03:08:26.317Z,2.47
2022-11-13T03:09:28.564Z,2.60
2022-11-13T03:10:30.572Z,1.90
2022-11-13T03:11:32.477Z,2.33
2022-11-13T03:12:34.480Z,2.47
2022-11-13T03:13:36.903Z,2.10
2022-11-13T03:14:38.882Z,2.28
2022-11-13T03:15:41.009Z,1.98
2022-11-13T03:16:43.502Z,2.22
2022-11-13T03:17:46.338Z,2.33
2022-11-13T03:18:48.325Z,1.80
2022-11-13T03:19:50.253Z,2.45
2022-11-13T03:20:54.287Z,2.00
2022-11-13T03:21:56.493Z,2.15
2022-11-13T03:22:58.454Z,2.10
2022-11-13T03:24:00.502Z,2.55
2022-11-13T03:25:07.395Z,2.13
2022-11-13T03:26:15.412Z,2.38
2022-11-13T03:27:17.726Z,2.20
2022-11-13T03:28:19.675Z,2.33
2022-11-13T03:29:21.714Z,2.10
2022-11-13T03:30:24.053Z,1.67
2022-11-13T03:31:26.782Z,2.15
2022-11-13T03:32:29.084Z,1.95
2022-11-13T03:33:31.885Z,2.00
2022-11-13T03:34:34.618Z,1.80
2022-11-13T03:35:44.197Z,1.80
2022-11-13T03:36:48.804Z,2.08
2022-11-13T03:37:51.196Z,2.30
2022-11-13T03:38:53.993Z,2.17
2022-11-13T03:39:56.209Z,1.80
2022-11-13T03:40:59.646Z,1.73
2022-11-13T03:42:01.633Z,1.60
2022-11-13T03:43:03.626Z,2.35
2022-11-13T03:44:05.585Z,1.73
2022-11-13T03:45:08.005Z,1.85
2022-11-13T03:46:10.046Z,1.98
2022-11-13T03:47:12.053Z,2.55
2022-11-13T03:48:15.381Z,2.03
2022-11-13T03:49:17.316Z,2.30
2022-11-13T03:50:19.402Z,1.95
2022-11-13T03:51:21.502Z,2.00
2022-11-13T03:52:23.525Z,2.05
2022-11-13T03:53:25.807Z,2.40
2022-11-13T03:54:28.365Z,2.45
2022-11-13T03:55:30.359Z,1.75
2022-11-13T03:56:32.352Z,1.98
2022-11-13T03:57:35.088Z,1.92
2022-11-13T03:58:40.084Z,1.90
2022-11-13T03:59:42.422Z,2.47
2022-11-13T04:00:45.405Z,2.38
2022-11-13T04:01:47.403Z,2.33
2022-11-13T04:02:49.409Z,2.72
2022-11-13T04:03:51.652Z,2.50
2022-11-13T04:04:53.917Z,2.30
2022-11-13T04:05:55.948Z,2.42
2022-11-13T04:06:57.883Z,2.70
2022-11-13T04:08:00.298Z,2.78
2022-11-13T04:09:02.604Z,1.85
2022-11-13T04:10:04.940Z,2.30
2022-11-13T04:11:11.593Z,2.88
2022-11-13T04:12:13.872Z,2.40
2022-11-13T04:13:15.887Z,2.55
2022-11-13T04:14:17.941Z,2.42
2022-11-13T04:15:21.618Z,2.28
2022-11-13T04:16:23.965Z,1.85
2022-11-13T04:17:26.377Z,2.10
2022-11-13T04:18:28.637Z,2.30
2022-11-13T04:19:30.772Z,2.45
2022-11-13T04:20:32.759Z,2.08
2022-11-13T04:21:34.804Z,1.80
2022-11-13T04:22:36.968Z,2.30
2022-11-13T04:23:38.889Z,2.65
2022-11-13T04:24:40.935Z,2.67
2022-11-13T04:25:42.969Z,3.35
2022-11-13T04:26:45.884Z,2.60
2022-11-13T04:27:49.918Z,2.65
2022-11-13T04:28:51.868Z,3.78
2022-11-13T04:29:53.906Z,3.42
2022-11-13T04:30:55.914Z,3.47
2022-11-13T04:31:57.808Z,3.45
2022-11-13T04:32:59.779Z,2.97
2022-11-13T04:34:01.935Z,2.70
2022-11-13T04:35:04.335Z,2.58
2022-11-13T04:36:06.960Z,2.80
2022-11-13T04:37:09.145Z,3.00
2022-11-13T04:38:12.967Z,2.55
2022-11-13T04:39:18.751Z,2.67
2022-11-13T04:40:20.985Z,3.28
2022-11-13T04:41:41.376Z,3.03
2022-11-13T04:42:49.570Z,3.25
2022-11-13T04:43:51.815Z,3.22
2022-11-13T04:44:54.099Z,3.40
2022-11-13T04:45:56.140Z,3.00
2022-11-13T04:46:58.133Z,3.58
2022-11-13T04:48:00.186Z,3.47
2022-11-13T04:49:02.234Z,2.20
2022-11-13T04:50:05.095Z,2.50
2022-11-13T04:51:07.352Z,3.38
2022-11-13T04:52:09.322Z,3.75
2022-11-13T04:53:11.306Z,4.55
2022-11-13T04:54:13.355Z,3.40
2022-11-13T04:55:16.041Z,3.90
2022-11-13T04:56:18.459Z,3.42
2022-11-13T04:57:20.730Z,3.85
2022-11-13T04:58:22.737Z,3.20
2022-11-13T04:59:25.075Z,3.33
2022-11-13T05:00:27.119Z,4.13
2022-11-13T05:01:29.379Z,3.42
2022-11-13T05:02:32.136Z,4.13
2022-11-13T05:03:34.123Z,3.95
2022-11-13T05:04:36.448Z,4.32
2022-11-13T05:05:38.461Z,4.38
2022-11-13T05:06:41.850Z,4.30
2022-11-13T05:07:43.986Z,3.78
2022-11-13T05:08:46.479Z,3.53
2022-11-13T05:09:48.752Z,3.85
2022-11-13T05:10:50.654Z,3.42
2022-11-13T05:11:52.614Z,4.35
2022-11-13T05:12:57.328Z,3.67
2022-11-13T05:14:03.276Z,4.32
2022-11-13T05:15:06.604Z,3.92
2022-11-13T05:16:10.936Z,4.38
2022-11-13T05:17:13.873Z,3.80
2022-11-13T05:18:15.832Z,3.58
2022-11-13T05:19:17.938Z,3.75
2022-11-13T05:20:20.071Z,3.92
2022-11-13T05:21:21.994Z,3.88
2022-11-13T05:22:23.915Z,3.75
2022-11-13T05:23:25.970Z,4.07
2022-11-13T05:24:27.916Z,3.92
2022-11-13T05:25:31.115Z,4.43
2022-11-13T05:26:33.091Z,3.97
2022-11-13T05:27:35.164Z,3.58
2022-11-13T05:28:38.058Z,4.40
2022-11-13T05:29:41.631Z,4.03
2022-11-13T05:30:44.248Z,4.20
2022-11-13T05:31:46.655Z,3.75
2022-11-13T05:32:48.674Z,4.28
2022-11-13T05:33:50.729Z,3.97
2022-11-13T05:34:53.781Z,4.25
2022-11-13T05:35:56.047Z,4.00
2022-11-13T05:36:58.217Z,3.60
2022-11-13T05:38:03.987Z,4.53
2022-11-13T05:39:06.472Z,3.97
2022-11-13T05:40:09.734Z,4.25
2022-11-13T05:41:19.188Z,4.18
2022-11-13T05:42:23.721Z,4.05
2022-11-13T05:43:26.603Z,4.28
2022-11-13T05:44:28.722Z,4.47
2022-11-13T05:45:31.692Z,4.80
2022-11-13T05:46:33.638Z,3.83
2022-11-13T05:47:35.744Z,4.07
2022-11-13T05:48:38.615Z,3.45
2022-11-13T05:49:40.567Z,3.53
2022-11-13T05:50:44.263Z,3.70
2022-11-13T05:51:56.603Z,4.65
2022-11-13T05:54:01.354Z,3.85
2022-11-13T05:55:03.562Z,4.15
2022-11-13T05:56:18.134Z,4.88
2022-11-13T05:57:20.100Z,5.65
2022-11-13T05:58:22.116Z,5.60
2022-11-13T05:59:24.626Z,5.30
2022-11-13T06:00:26.508Z,5.45
2022-11-13T06:01:37.645Z,5.18
2022-11-13T06:03:43.057Z,4.75
2022-11-13T06:04:45.074Z,5.72
2022-11-13T06:05:47.038Z,4.80
2022-11-13T06:06:49.189Z,4.63
2022-11-13T06:07:51.221Z,4.97
2022-11-13T06:08:56.485Z,5.38
2022-11-13T06:09:58.815Z,5.10
2022-11-13T06:11:03.969Z,4.40
2022-11-13T06:12:06.125Z,4.82
2022-11-13T06:13:08.095Z,5.03
2022-11-13T06:14:10.100Z,4.43
2022-11-13T06:15:12.273Z,5.78
2022-11-13T06:16:20.049Z,5.82
2022-11-13T06:17:21.993Z,4.75
2022-11-13T06:18:26.728Z,5.00
2022-11-13T06:19:29.202Z,4.53
2022-11-13T06:20:31.490Z,5.03
2022-11-13T06:21:35.471Z,4.80
2022-11-13T06:22:37.390Z,4.47
2022-11-13T06:23:40.666Z,4.55
2022-11-13T06:24:42.662Z,4.10
2022-11-13T06:25:44.699Z,3.92
2022-11-13T06:26:46.656Z,3.80
2022-11-13T06:27:48.916Z,3.75
2022-11-13T06:28:51.363Z,4.15
2022-11-13T06:29:53.914Z,3.80
2022-11-13T06:30:55.780Z,3.90
2022-11-13T06:31:57.714Z,4.57
2022-11-13T06:33:00.383Z,4.55
2022-11-13T06:34:03.477Z,4.70
2022-11-13T06:35:05.894Z,4.32
2022-11-13T06:36:12.514Z,4.63
2022-11-13T06:37:15.911Z,4.72
2022-11-13T06:38:19.483Z,4.97
2022-11-13T06:39:21.470Z,4.20
2022-11-13T06:40:23.727Z,4.20
2022-11-13T06:41:29.964Z,4.45
2022-11-13T06:42:31.896Z,5.20
2022-11-13T06:43:34.167Z,4.35
2022-11-13T06:44:36.516Z,4.80
2022-11-13T06:45:38.489Z,4.93
2022-11-13T06:46:40.809Z,4.65
2022-11-13T06:47:42.813Z,4.68
2022-11-13T06:48:45.517Z,4.75
2022-11-13T06:49:47.483Z,4.15
2022-11-13T06:50:49.932Z,5.03
2022-11-13T06:51:52.493Z,5.15
2022-11-13T06:52:55.252Z,4.43
2022-11-13T06:53:58.190Z,4.72
2022-11-13T06:55:01.591Z,4.43
2022-11-13T06:56:06.336Z,4.95
2022-11-13T06:57:08.305Z,4.45
2022-11-13T06:58:10.621Z,4.53
2022-11-13T06:59:12.870Z,4.78
2022-11-13T07:00:15.491Z,4.38
2022-11-13T07:01:22.093Z,4.38
2022-11-13T07:02:24.123Z,5.22
2022-11-13T07:03:27.012Z,5.57
2022-11-13T07:04:28.961Z,5.55
2022-11-13T07:05:31.179Z,5.13
2022-11-13T07:06:37.584Z,4.70
2022-11-13T07:07:42.585Z,4.20
2022-11-13T07:08:47.048Z,4.30
2022-11-13T07:09:49.412Z,4.05
2022-11-13T07:10:55.867Z,4.70
2022-11-13T07:11:58.370Z,4.38
2022-11-13T07:13:00.808Z,4.20
2022-11-13T07:14:02.759Z,4.30
2022-11-13T07:15:05.328Z,4.28
2022-11-13T07:16:16.282Z,4.70
2022-11-13T07:17:21.322Z,4.03
2022-11-13T07:18:25.980Z,4.55
2022-11-13T07:19:28.225Z,4.30
2022-11-13T07:20:31.109Z,4.18
2022-11-13T07:21:33.064Z,4.30
2022-11-13T07:22:35.025Z,4.68
2022-11-13T07:23:39.909Z,4.97
2022-11-13T07:24:42.865Z,4.07
2022-11-13T07:25:45.078Z,4.20
2022-11-13T07:26:49.864Z,3.90
2022-11-13T07:27:52.492Z,3.70
2022-11-13T07:28:54.461Z,4.00
2022-11-13T07:30:00.847Z,4.13
2022-11-13T07:31:06.877Z,3.95
2022-11-13T07:32:08.922Z,3.35
2022-11-13T07:33:10.797Z,3.30
2022-11-13T07:34:12.678Z,2.83
2022-11-13T07:35:14.882Z,2.85
2022-11-13T07:36:16.980Z,2.50
2022-11-13T07:37:22.585Z,2.30
2022-11-13T07:38:28.684Z,3.00
2022-11-13T07:39:31.317Z,2.35
2022-11-13T07:40:33.663Z,2.45
2022-11-13T07:41:35.712Z,2.30
2022-11-13T07:42:38.158Z,2.25
2022-11-13T07:43:42.191Z,2.70
2022-11-13T07:44:59.925Z,2.20
2022-11-13T07:46:02.200Z,2.65
2022-11-13T07:47:05.708Z,3.05
2022-11-13T07:48:07.817Z,2.53
2022-11-13T07:49:10.040Z,2.70
2022-11-13T07:50:14.009Z,3.22
2022-11-13T07:51:19.510Z,2.40
2022-11-13T07:52:21.482Z,3.15
2022-11-13T07:53:24.389Z,3.72
2022-11-13T07:54:27.925Z,4.00
2022-11-13T07:55:33.926Z,3.58
2022-11-13T07:56:36.637Z,3.75
2022-11-13T07:57:38.803Z,4.03
2022-11-13T07:58:42.354Z,4.20
2022-11-13T07:59:44.372Z,4.80
2022-11-13T08:00:46.422Z,4.65
2022-11-13T08:01:49.020Z,6.25
2022-11-13T08:02:51.341Z,5.70
2022-11-13T08:03:53.332Z,4.70
2022-11-13T08:04:55.230Z,5.30
2022-11-13T08:06:05.626Z,5.55
2022-11-13T08:07:08.201Z,5.37
2022-11-13T08:08:17.442Z,5.50
2022-11-13T08:09:21.110Z,6.13
2022-11-13T08:10:23.575Z,5.50
2022-11-13T08:11:25.641Z,6.00
2022-11-13T08:12:29.265Z,6.50
2022-11-13T08:13:31.628Z,5.72
2022-11-13T08:14:34.066Z,5.18
2022-11-13T08:15:36.359Z,6.15
2022-11-13T08:16:40.104Z,6.63
2022-11-13T08:17:43.161Z,6.40
2022-11-13T08:18:45.250Z,7.47
2022-11-13T08:19:52.189Z,6.65
2022-11-13T08:20:55.548Z,6.88
2022-11-13T08:21:58.155Z,7.32
2022-11-13T08:23:01.788Z,6.75
2022-11-13T08:24:04.323Z,7.25
2022-11-13T08:25:06.496Z,6.63
2022-11-13T08:26:10.888Z,7.50
2022-11-13T08:27:14.912Z,6.30
2022-11-13T08:28:16.991Z,7.03
2022-11-13T08:29:18.968Z,6.15
2022-11-13T08:30:22.665Z,7.20
2022-11-13T08:31:25.504Z,7.40
2022-11-13T08:32:28.328Z,7.85
2022-11-13T08:33:33.881Z,8.27
2022-11-13T08:34:38.539Z,8.45
2022-11-13T08:35:40.965Z,8.90
2022-11-13T08:36:43.313Z,9.10
2022-11-13T08:37:45.883Z,8.70
2022-11-13T08:38:53.252Z,8.77
2022-11-13T08:40:05.775Z,9.57
2022-11-13T08:41:38.659Z,9.55
2022-11-13T08:42:53.184Z,9.55
2022-11-13T08:44:16.354Z,11.07
2022-11-13T08:47:01.058Z,10.68
2022-11-13T08:49:34.667Z,10.70
2022-11-13T08:50:44.492Z,10.20
2022-11-13T08:51:58.567Z,10.20
2022-11-13T08:53:37.676Z,11.32
2022-11-13T09:02:21.541Z,10.63
2022-11-13T09:03:34.203Z,11.13
2022-11-13T09:04:42.049Z,11.60
2022-11-13T09:05:49.977Z,9.50
2022-11-13T09:07:04.166Z,9.70
2022-11-13T09:08:16.252Z,7.82
2022-11-13T09:09:23.893Z,8.65
2022-11-13T09:10:38.532Z,8.27
2022-11-13T09:13:16.354Z,8.10
2022-11-13T09:14:28.504Z,9.15
2022-11-13T09:15:33.939Z,8.95
2022-11-13T09:16:45.788Z,8.93
2022-11-13T09:18:05.407Z,7.15
2022-11-13T09:19:17.993Z,8.38
2022-11-13T09:20:30.335Z,8.32
2022-11-13T09:23:06.276Z,7.43
2022-11-13T09:24:13.399Z,6.38
2022-11-13T09:25:17.708Z,6.80
2022-11-13T09:26:51.740Z,6.30
2022-11-13T09:27:55.729Z,6.10
2022-11-13T09:28:57.793Z,6.43
2022-11-13T09:30:05.035Z,6.65
2022-11-13T09:31:08.089Z,6.57
2022-11-13T09:32:18.651Z,7.07
2022-11-13T09:33:23.045Z,6.30
2022-11-13T09:34:33.785Z,6.63
2022-11-13T09:35:45.967Z,5.75
2022-11-13T09:36:48.303Z,5.50
2022-11-13T09:37:54.113Z,5.95
2022-11-13T09:39:06.016Z,5.25
2022-11-13T09:40:58.107Z,4.47
2022-11-13T09:42:24.190Z,4.18
2022-11-13T09:43:47.197Z,4.10
2022-11-13T09:45:10.664Z,3.38
2022-11-13T09:46:22.073Z,3.00
2022-11-13T09:47:30.376Z,2.78
2022-11-13T09:48:41.571Z,3.20
2022-11-13T09:50:47.868Z,3.00
2022-11-13T09:52:06.891Z,2.17
2022-11-13T09:53:15.446Z,1.67
2022-11-13T09:54:19.278Z,2.30
2022-11-13T09:55:28.808Z,1.83
2022-11-13T09:56:42.727Z,2.22
2022-11-13T09:58:04.137Z,2.17
2022-11-13T10:00:28.966Z,2.22
2022-11-13T10:01:38.200Z,1.75
2022-11-13T10:02:55.197Z,2.13
2022-11-13T10:04:04.135Z,1.58
2022-11-13T10:05:30.371Z,1.60
2022-11-13T10:06:44.050Z,1.75
2022-11-13T10:08:19.913Z,1.90
2022-11-13T10:09:33.054Z,1.40
2022-11-13T10:10:49.294Z,1.70
2022-11-13T10:12:04.213Z,1.52
2022-11-13T10:13:30.979Z,1.30
2022-11-13T10:14:46.464Z,2.05
2022-11-13T10:15:54.278Z,1.63
2022-11-13T10:17:15.002Z,2.22
2022-11-13T10:18:36.700Z,1.60
2022-11-13T10:19:56.570Z,1.77
2022-11-13T10:21:25.139Z,3.38
2022-11-13T10:22:35.650Z,1.88
2022-11-13T10:23:41.283Z,1.20
2022-11-13T10:24:45.135Z,2.08
2022-11-13T10:25:47.879Z,1.20
2022-11-13T10:26:49.960Z,1.45
2022-11-13T10:28:16.148Z,1.60
2022-11-13T10:29:28.641Z,1.45
2022-11-13T10:30:33.191Z,2.03
2022-11-13T10:31:51.692Z,2.00
2022-11-13T10:32:53.978Z,1.42
2022-11-13T10:33:58.171Z,2.03
2022-11-13T10:35:07.996Z,1.40
2022-11-13T10:36:51.533Z,2.17
2022-11-13T10:38:08.700Z,1.55
2022-11-13T10:39:10.901Z,1.67
2022-11-13T10:40:27.683Z,1.73
2022-11-13T10:41:29.685Z,1.70
2022-11-13T10:42:40.806Z,1.95
2022-11-13T10:44:59.984Z,2.38
2022-11-13T10:46:05.587Z,1.88
2022-11-13T10:47:36.145Z,1.80
2022-11-13T10:48:41.208Z,1.58
2022-11-13T10:49:43.657Z,2.25
2022-11-13T10:50:57.208Z,1.77
2022-11-13T10:52:08.434Z,1.35
2022-11-13T10:53:18.362Z,1.73
2022-11-13T10:54:26.698Z,1.45
2022-11-13T10:55:38.084Z,1.67
2022-11-13T10:56:46.001Z,1.70
2022-11-13T10:57:59.511Z,1.60
2022-11-13T10:59:17.789Z,1.40
2022-11-13T11:00:26.201Z,1.75
2022-11-13T11:01:28.711Z,1.58
2022-11-13T11:02:33.372Z,2.08
2022-11-13T11:03:35.232Z,1.67
2022-11-13T11:04:37.156Z,1.63
2022-11-13T11:06:03.360Z,1.70
2022-11-13T11:07:21.340Z,1.80
2022-11-13T11:08:33.263Z,1.75
2022-11-13T11:09:38.666Z,1.65
2022-11-13T11:11:01.214Z,1.52
2022-11-13T11:12:19.735Z,1.88
2022-11-13T11:13:23.683Z,1.67
2022-11-13T11:14:30.756Z,1.33
2022-11-13T11:15:55.892Z,1.58
2022-11-13T11:17:04.852Z,1.95
2022-11-13T11:18:49.852Z,2.15
2022-11-13T11:20:00.955Z,1.60
2022-11-13T11:21:10.713Z,1.35
2022-11-13T11:22:17.860Z,1.75
2022-11-13T11:23:41.647Z,1.58
2022-11-13T11:24:55.787Z,2.35
2022-11-13T11:26:22.797Z,1.90
2022-11-13T11:27:40.503Z,1.75
2022-11-13T11:29:00.363Z,1.92
2022-11-13T11:30:25.007Z,1.50
2022-11-13T11:31:38.174Z,1.98
2022-11-13T11:32:58.277Z,1.88
2022-11-13T11:34:13.562Z,1.58
2022-11-13T11:35:26.543Z,1.70
2022-11-13T11:36:46.429Z,1.90
2022-11-13T11:37:51.111Z,1.88
2022-11-13T11:39:02.759Z,1.58
2022-11-13T11:40:27.124Z,2.50
2022-11-13T11:41:57.540Z,1.90
2022-11-13T11:43:13.292Z,1.75
2022-11-13T11:44:28.123Z,1.70
2022-11-13T11:45:37.528Z,2.25
2022-11-13T11:46:46.667Z,1.48
2022-11-13T11:47:49.298Z,2.13
2022-11-13T11:48:51.879Z,2.38
2022-11-13T11:49:58.031Z,2.25
2022-11-13T11:51:28.892Z,2.83
2022-11-13T11:52:57.198Z,2.20
2022-11-13T11:54:31.250Z,2.08
2022-11-13T11:56:09.854Z,2.38
2022-11-13T11:57:45.619Z,2.05
2022-11-13T11:58:56.691Z,1.45
2022-11-13T12:00:13.802Z,2.33
2022-11-13T12:01:35.287Z,2.10
2022-11-13T12:02:54.885Z,2.70
2022-11-13T12:04:15.265Z,2.25
2022-11-13T12:05:25.020Z,2.10
2022-11-13T12:07:03.915Z,2.22
2022-11-13T12:08:39.482Z,2.33
2022-11-13T12:10:13.498Z,2.67
2022-11-13T12:11:30.009Z,2.58
2022-11-13T12:12:37.494Z,2.78
2022-11-13T12:14:04.983Z,2.40
2022-11-13T12:15:18.820Z,2.45
2022-11-13T12:16:30.359Z,2.95
2022-11-13T12:17:56.822Z,2.33
2022-11-13T12:19:15.805Z,2.60
2022-11-13T12:20:54.617Z,2.95
2022-11-13T12:21:59.157Z,2.35
2022-11-13T12:23:41.969Z,2.35
2022-11-13T12:25:01.607Z,2.00
2022-11-13T12:26:18.160Z,2.13
2022-11-13T12:27:43.769Z,2.33
2022-11-13T12:29:14.976Z,2.17
2022-11-13T12:30:27.813Z,3.00
2022-11-13T12:31:41.333Z,2.35
2022-11-13T12:32:55.063Z,2.88
2022-11-13T12:34:16.099Z,3.97
2022-11-13T12:35:23.775Z,3.55
2022-11-13T12:36:26.439Z,5.05
2022-11-13T12:37:42.217Z,4.97
2022-11-13T12:38:49.891Z,6.28
2022-11-13T12:40:03.550Z,6.93
2022-11-13T12:41:23.785Z,6.45
2022-11-13T12:42:55.257Z,6.75
2022-11-13T12:44:13.685Z,7.93
2022-11-13T12:45:36.746Z,6.60
2022-11-13T12:46:42.018Z,6.82
2022-11-13T12:47:45.308Z,7.00
2022-11-13T12:48:48.331Z,7.68
2022-11-13T12:50:00.163Z,7.65
2022-11-13T12:51:04.891Z,6.28
2022-11-13T12:52:24.309Z,7.57
2022-11-13T12:53:31.916Z,7.35
2022-11-13T12:54:37.848Z,7.70
2022-11-13T12:55:41.534Z,7.45
2022-11-13T12:56:43.757Z,8.07
2022-11-13T12:57:48.775Z,7.93
2022-11-13T12:59:35.900Z,7.03
2022-11-13T13:00:51.819Z,6.32
2022-11-13T13:02:19.305Z,6.93
2022-11-13T13:03:21.402Z,7.10
2022-11-13T13:04:47.253Z,6.63
2022-11-13T13:05:58.877Z,6.65
2022-11-13T13:07:23.126Z,6.10
2022-11-13T13:08:48.469Z,6.65
2022-11-13T13:10:17.650Z,6.00
2022-11-13T13:11:45.716Z,5.07
2022-11-13T13:13:11.413Z,6.97
2022-11-13T13:14:31.796Z,5.78
2022-11-13T13:15:38.372Z,5.78
2022-11-13T13:16:40.321Z,5.25
2022-11-13T13:17:43.293Z,5.15
2022-11-13T13:18:46.553Z,5.45
2022-11-13T13:19:58.959Z,4.65
2022-11-13T13:21:10.690Z,3.88
2022-11-13T13:22:26.430Z,4.20
2022-11-13T13:23:32.876Z,4.50
2022-11-13T13:24:37.483Z,4.60
2022-11-13T13:25:40.636Z,4.18
2022-11-13T13:26:47.451Z,4.10
2022-11-13T13:28:08.783Z,4.40
2022-11-13T13:29:24.154Z,4.15
2022-11-13T13:30:27.163Z,3.85
2022-11-13T13:31:54.902Z,3.92
2022-11-13T13:33:31.533Z,5.00
2022-11-13T13:34:55.617Z,4.43
2022-11-13T13:36:06.566Z,4.05
2022-11-13T13:37:20.194Z,4.70
2022-11-13T13:38:26.331Z,4.88
2022-11-13T13:39:40.628Z,4.35
2022-11-13T13:40:57.630Z,4.15
2022-11-13T13:42:05.693Z,4.20
2022-11-13T13:43:13.413Z,3.80
2022-11-13T13:44:21.052Z,3.92
2022-11-13T13:45:37.289Z,3.80
2022-11-13T13:46:39.576Z,4.07
2022-11-13T13:47:47.035Z,4.60
2022-11-13T13:48:51.980Z,4.93
2022-11-13T13:49:54.656Z,4.82
2022-11-13T13:50:58.115Z,5.18
2022-11-13T13:52:00.361Z,5.85
2022-11-13T13:53:03.412Z,6.50
2022-11-13T13:54:08.183Z,6.93
2022-11-13T13:55:38.223Z,7.45
2022-11-13T13:56:41.428Z,11.43
2022-11-13T13:57:43.518Z,12.48
2022-11-13T13:58:47.293Z,9.50
2022-11-13T13:59:51.117Z,9.63
2022-11-13T14:02:24.631Z,12.02
2022-11-13T14:03:29.347Z,10.70
2022-11-13T14:04:42.472Z,13.25
2022-11-13T14:05:44.337Z,12.43
2022-11-13T14:06:55.308Z,15.65
2022-11-13T14:07:58.528Z,16.00
2022-11-13T14:09:11.630Z,12.10
2022-11-13T14:10:17.603Z,11.10
2022-11-13T14:11:22.902Z,14.50
2022-11-13T14:12:24.843Z,13.02
2022-11-13T14:13:29.221Z,21.50
2022-11-13T14:14:32.073Z,22.88
2022-11-13T14:15:35.650Z,27.05
2022-11-13T14:16:50.419Z,25.67
2022-11-13T14:17:52.712Z,18.02
2022-11-13T14:19:06.072Z,17.23
2022-11-13T14:20:12.446Z,15.38
2022-11-13T14:21:22.063Z,14.88
2022-11-13T14:22:25.426Z,10.10
2022-11-13T14:23:33.677Z,8.75
2022-11-13T14:24:54.765Z,10.05
2022-11-13T14:25:57.796Z,10.55
2022-11-13T14:27:02.471Z,18.98
2022-11-13T14:28:04.756Z,49.55
2022-11-13T14:29:06.664Z,74.82
2022-11-13T14:30:25.038Z,62.13
2022-11-13T14:31:30.498Z,32.80
2022-11-13T14:32:41.892Z,12.85
2022-11-13T14:33:49.313Z,8.68
2022-11-13T14:35:02.018Z,4.97
2022-11-13T14:36:04.850Z,5.43
2022-11-13T14:37:19.149Z,4.38
2022-11-13T14:38:27.491Z,4.75
2022-11-13T14:39:33.336Z,4.68
2022-11-13T14:40:37.676Z,3.85
2022-11-13T14:41:47.815Z,4.07
2022-11-13T14:43:08.142Z,4.20
2022-11-13T14:44:12.119Z,3.67
2022-11-13T14:45:15.912Z,3.30
2022-11-13T14:46:38.054Z,3.88
2022-11-13T14:47:39.969Z,3.85
2022-11-13T14:48:54.194Z,4.15
2022-11-13T14:49:56.169Z,4.80
2022-11-13T14:51:03.208Z,4.80
2022-11-13T14:52:07.233Z,3.53
2022-11-13T14:53:10.868Z,3.63
2022-11-13T14:55:07.985Z,3.97
2022-11-13T14:56:05.737Z,3.90
2022-11-13T14:57:09.700Z,4.45
2022-11-13T14:58:14.869Z,4.13
2022-11-13T14:59:26.471Z,4.35
2022-11-13T15:00:39.479Z,4.22
2022-11-13T15:01:42.025Z,6.68
2022-11-13T15:02:44.810Z,10.68
2022-11-13T15:03:49.064Z,8.40
2022-11-13T15:04:53.379Z,6.57
2022-11-13T15:05:56.087Z,8.65
2022-11-13T15:07:01.585Z,9.25
2022-11-13T15:08:03.472Z,9.77
2022-11-13T15:09:11.515Z,7.55
2022-11-13T15:10:17.916Z,8.80
2022-11-13T15:11:22.765Z,17.23
2022-11-13T15:12:24.893Z,14.60
2022-11-13T15:13:27.318Z,14.27
2022-11-13T15:14:29.977Z,15.52
2022-11-13T15:15:32.345Z,14.10